createdAt,value
2023-02-07T00:01:16.729Z,11.27
2023-02-07T00:03:43.872Z,9.83
2023-02-07T00:06:13.982Z,14.43
2023-02-07T00:08:41.196Z,9.18
2023-02-07T00:11:12.770Z,12.35
2023-02-07T00:13:39.338Z,14.45
2023-02-07T00:16:06.850Z,10.10
2023-02-07T00:18:34.196Z,9.88
2023-02-07T00:21:03.529Z,15.15
2023-02-07T00:23:30.215Z,9.75
2023-02-07T00:25:56.919Z,12.27
2023-02-07T00:28:23.626Z,13.60
2023-02-07T00:30:50.168Z,10.63
2023-02-07T00:33:16.725Z,15.23
2023-02-07T00:35:43.449Z,11.75
2023-02-07T00:38:09.862Z,13.27
2023-02-07T00:40:36.303Z,10.63
2023-02-07T00:43:02.761Z,15.05
2023-02-07T00:45:29.113Z,11.48
2023-02-07T00:47:55.503Z,14.80
2023-02-07T00:50:21.869Z,13.43
2023-02-07T00:52:48.245Z,13.93
2023-02-07T00:55:14.594Z,8.40
2023-02-07T00:57:40.989Z,13.88
2023-02-07T01:00:08.144Z,9.85
2023-02-07T01:02:34.501Z,15.40
2023-02-07T01:05:01.006Z,10.63
2023-02-07T01:07:27.369Z,18.38
2023-02-07T01:09:53.709Z,9.02
2023-02-07T01:12:20.066Z,14.38
2023-02-07T01:14:46.398Z,10.38
2023-02-07T01:17:13.794Z,13.03
2023-02-07T01:19:40.196Z,17.65
2023-02-07T01:22:06.550Z,11.63
2023-02-07T01:24:35.142Z,14.85
2023-02-07T01:27:02.497Z,12.48
2023-02-07T01:29:28.850Z,9.50
2023-02-07T01:31:55.292Z,14.70
2023-02-07T01:34:21.669Z,17.50
2023-02-07T01:36:48.061Z,16.23
2023-02-07T01:39:14.522Z,11.38
2023-02-07T01:41:40.848Z,14.30
2023-02-07T01:44:28.770Z,10.85
2023-02-07T01:46:56.625Z,13.30
2023-02-07T01:49:27.102Z,13.85
2023-02-07T01:51:56.599Z,10.98
2023-02-07T01:54:23.467Z,14.37
2023-02-07T01:56:58.141Z,13.82
2023-02-07T01:59:25.281Z,13.98
2023-02-07T02:01:51.801Z,13.32
2023-02-07T02:04:18.279Z,9.85
2023-02-07T02:06:46.306Z,12.83
2023-02-07T02:09:15.117Z,13.82
2023-02-07T02:11:57.068Z,16.25
2023-02-07T02:14:48.392Z,14.38
2023-02-07T02:17:38.715Z,12.80
2023-02-07T02:20:29.708Z,10.10
2023-02-07T02:23:14.938Z,12.80
2023-02-07T02:25:55.545Z,12.82
2023-02-07T02:29:06.425Z,13.73
2023-02-07T02:32:03.413Z,15.45
2023-02-07T02:34:32.847Z,13.40
2023-02-07T02:37:22.461Z,9.27
2023-02-07T02:40:09.954Z,12.02
2023-02-07T02:43:05.112Z,7.75
2023-02-07T02:45:39.181Z,13.20
2023-02-07T02:48:09.584Z,15.90
2023-02-07T02:50:36.013Z,8.48
2023-02-07T02:53:02.708Z,12.57
2023-02-07T02:55:43.932Z,13.40
2023-02-07T02:58:39.828Z,15.63
2023-02-07T03:01:17.714Z,11.30
2023-02-07T03:03:55.478Z,9.48
2023-02-07T03:06:35.785Z,12.13
2023-02-07T03:09:17.425Z,15.82
2023-02-07T03:11:58.105Z,18.08
2023-02-07T03:14:42.715Z,12.57
2023-02-07T03:17:34.500Z,11.68
2023-02-07T03:20:14.596Z,13.73
2023-02-07T03:22:44.409Z,8.20
2023-02-07T03:25:14.905Z,15.20
2023-02-07T03:27:42.553Z,9.53
2023-02-07T03:30:12.517Z,9.95
2023-02-07T03:32:43.817Z,13.77
2023-02-07T03:35:15.978Z,8.63
2023-02-07T03:37:47.936Z,14.68
2023-02-07T03:40:15.058Z,14.43
2023-02-07T03:42:55.505Z,12.18
2023-02-07T03:45:23.005Z,10.88
2023-02-07T03:47:49.842Z,12.93
2023-02-07T03:50:17.574Z,9.30
2023-02-07T03:52:43.903Z,18.40
2023-02-07T03:55:10.409Z,12.43
2023-02-07T03:57:37.070Z,14.32
2023-02-07T04:00:05.656Z,7.88
2023-02-07T04:02:32.081Z,16.17
2023-02-07T04:04:58.432Z,10.10
2023-02-07T04:07:24.841Z,17.15
2023-02-07T04:09:51.285Z,14.32
2023-02-07T04:12:17.735Z,9.23
2023-02-07T04:14:44.193Z,16.73
2023-02-07T04:17:10.572Z,15.00
2023-02-07T04:19:36.927Z,14.38
2023-02-07T04:22:03.572Z,11.77
2023-02-07T04:24:32.090Z,17.00
2023-02-07T04:26:59.528Z,12.02
2023-02-07T04:29:26.663Z,13.03
2023-02-07T04:31:53.102Z,14.82
2023-02-07T04:34:19.557Z,11.48
2023-02-07T04:36:45.936Z,11.95
2023-02-07T04:39:12.332Z,17.40
2023-02-07T04:41:38.767Z,17.83
2023-02-07T04:44:05.265Z,14.13
2023-02-07T04:46:31.729Z,13.00
2023-02-07T04:48:58.189Z,10.70
2023-02-07T04:51:24.521Z,11.75
2023-02-07T04:53:50.933Z,13.07
2023-02-07T04:56:17.363Z,17.45
2023-02-07T04:58:43.772Z,10.82
2023-02-07T05:01:10.126Z,14.00
2023-02-07T05:03:36.436Z,11.70
2023-02-07T05:06:02.891Z,10.80
2023-02-07T05:08:29.245Z,10.27
2023-02-07T05:10:56.959Z,11.07
2023-02-07T05:13:24.129Z,8.98
2023-02-07T05:15:51.323Z,9.82
2023-02-07T05:18:18.124Z,8.53
2023-02-07T05:20:44.678Z,8.10
2023-02-07T05:23:11.119Z,10.65
2023-02-07T05:25:37.822Z,8.98
2023-02-07T05:28:04.578Z,16.00
2023-02-07T05:30:31.111Z,10.37
2023-02-07T05:33:03.789Z,9.35
2023-02-07T05:35:36.578Z,14.35
2023-02-07T05:38:07.461Z,13.73
2023-02-07T05:40:34.725Z,11.30
2023-02-07T05:43:01.085Z,12.93
2023-02-07T05:45:27.463Z,10.95
2023-02-07T05:47:53.834Z,7.90
2023-02-07T05:50:20.338Z,8.43
2023-02-07T05:52:46.722Z,12.90
2023-02-07T05:55:13.097Z,10.80
2023-02-07T05:57:41.846Z,9.20
2023-02-07T06:00:17.344Z,11.07
2023-02-07T06:02:44.451Z,7.22
2023-02-07T06:05:13.371Z,9.38
2023-02-07T06:07:39.823Z,7.07
2023-02-07T06:10:07.559Z,10.38
2023-02-07T06:12:34.569Z,10.15
2023-02-07T06:15:01.358Z,12.35
2023-02-07T06:17:27.966Z,12.68
2023-02-07T06:19:54.382Z,10.37
2023-02-07T06:22:20.772Z,9.85
2023-02-07T06:24:47.217Z,13.30
2023-02-07T06:27:13.539Z,15.80
2023-02-07T06:29:39.908Z,12.57
2023-02-07T06:32:06.354Z,11.50
2023-02-07T06:34:33.051Z,14.38
2023-02-07T06:36:59.427Z,11.70
2023-02-07T06:39:25.867Z,12.43
2023-02-07T06:41:52.234Z,14.38
2023-02-07T06:44:18.638Z,17.73
2023-02-07T06:46:45.045Z,16.40
2023-02-07T06:49:11.546Z,15.32
2023-02-07T06:51:37.929Z,14.25
2023-02-07T06:54:08.268Z,18.25
2023-02-07T06:56:34.658Z,14.43
2023-02-07T06:59:01.028Z,16.77
2023-02-07T07:01:27.753Z,11.48
2023-02-07T07:03:54.131Z,13.57
2023-02-07T07:06:20.519Z,15.82
2023-02-07T07:08:46.896Z,18.17
2023-02-07T07:11:13.326Z,10.68
2023-02-07T07:13:39.658Z,16.20
2023-02-07T07:16:06.284Z,13.82
2023-02-07T07:18:32.685Z,14.65
2023-02-07T07:20:59.072Z,14.43
2023-02-07T07:23:25.458Z,18.85
2023-02-07T07:25:52.651Z,11.98
2023-02-07T07:28:19.123Z,14.85
2023-02-07T07:30:45.529Z,14.85
2023-02-07T07:33:11.972Z,12.00
2023-02-07T07:35:38.719Z,14.25
2023-02-07T07:38:05.295Z,15.52
2023-02-07T07:40:31.737Z,16.23
2023-02-07T07:42:58.145Z,16.45
2023-02-07T07:45:24.728Z,18.57
2023-02-07T07:47:51.119Z,16.52
2023-02-07T07:50:17.485Z,22.65
2023-02-07T07:52:43.861Z,25.02
2023-02-07T07:55:10.534Z,19.27
2023-02-07T07:57:36.977Z,17.60
2023-02-07T08:00:04.735Z,21.30
2023-02-07T08:02:31.642Z,26.02
2023-02-07T08:04:58.050Z,20.33
2023-02-07T08:07:24.430Z,18.63
2023-02-07T08:09:50.754Z,19.57
2023-02-07T08:12:17.137Z,18.23
2023-02-07T08:14:43.576Z,22.85
2023-02-07T08:17:10.068Z,23.83
2023-02-07T08:19:38.220Z,19.25
2023-02-07T08:22:04.626Z,23.73
2023-02-07T08:24:31.108Z,21.27
2023-02-07T08:26:57.492Z,19.48
2023-02-07T08:29:23.833Z,21.85
2023-02-07T08:31:50.216Z,22.42
2023-02-07T08:34:18.217Z,21.90
2023-02-07T08:36:44.613Z,23.35
2023-02-07T08:39:11.165Z,19.70
2023-02-07T08:41:37.521Z,19.95
2023-02-07T08:44:03.863Z,23.52
2023-02-07T08:46:30.300Z,20.63
2023-02-07T08:48:56.784Z,27.58
2023-02-07T08:51:23.286Z,20.05
2023-02-07T08:53:49.764Z,19.17
2023-02-07T08:56:16.180Z,21.15
2023-02-07T08:58:42.609Z,19.37
2023-02-07T09:01:11.252Z,25.92
2023-02-07T09:03:38.229Z,18.80
2023-02-07T09:06:05.394Z,23.27
2023-02-07T09:08:32.100Z,25.40
2023-02-07T09:10:58.505Z,20.83
2023-02-07T09:13:25.007Z,25.45
2023-02-07T09:15:55.898Z,23.83
2023-02-07T09:18:23.233Z,20.45
2023-02-07T09:20:49.666Z,27.55
2023-02-07T09:23:19.355Z,22.23
2023-02-07T09:25:52.386Z,17.40
2023-02-07T09:28:20.261Z,18.42
2023-02-07T09:30:47.398Z,16.38
2023-02-07T09:33:15.392Z,17.25
2023-02-07T09:35:46.293Z,21.07
2023-02-07T09:38:15.630Z,14.85
2023-02-07T09:40:43.723Z,17.13
2023-02-07T09:43:47.722Z,16.90
2023-02-07T09:46:33.066Z,15.18
2023-02-07T09:49:10.906Z,15.67
2023-02-07T09:51:39.898Z,13.43
2023-02-07T09:54:22.461Z,14.73
2023-02-07T09:56:52.224Z,16.67
2023-02-07T09:59:37.712Z,12.15
2023-02-07T10:02:13.317Z,13.90
2023-02-07T10:04:44.076Z,15.43
2023-02-07T10:07:13.169Z,12.95
2023-02-07T10:09:43.079Z,15.77
2023-02-07T10:12:25.005Z,13.60
2023-02-07T10:15:13.847Z,12.43
2023-02-07T10:18:01.865Z,12.40
2023-02-07T10:20:40.828Z,13.35
2023-02-07T10:23:33.621Z,12.25
2023-02-07T10:25:59.921Z,15.50
2023-02-07T10:28:45.945Z,13.40
2023-02-07T10:31:18.544Z,11.90
2023-02-07T10:33:52.612Z,11.23
2023-02-07T10:36:19.229Z,11.27
2023-02-07T10:38:52.155Z,8.35
2023-02-07T10:41:39.635Z,17.57
2023-02-07T10:44:09.902Z,11.50
2023-02-07T10:46:39.425Z,14.25
2023-02-07T10:49:05.868Z,19.00
2023-02-07T10:51:45.863Z,30.55
2023-02-07T10:54:14.541Z,30.17
2023-02-07T10:56:44.344Z,29.48
2023-02-07T10:59:31.557Z,25.50
2023-02-07T11:01:58.219Z,21.73
2023-02-07T11:04:35.669Z,10.48
2023-02-07T11:07:04.703Z,7.63
2023-02-07T11:09:32.167Z,8.90
2023-02-07T11:11:58.617Z,7.00
2023-02-07T11:14:28.198Z,9.27
2023-02-07T11:16:57.137Z,7.82
2023-02-07T11:19:29.466Z,6.37
2023-02-07T11:22:17.700Z,5.95
2023-02-07T11:24:45.324Z,5.88
2023-02-07T11:27:15.429Z,6.50
2023-02-07T11:29:58.324Z,6.25
2023-02-07T11:32:27.396Z,3.83
2023-02-07T11:35:05.842Z,5.75
2023-02-07T11:37:37.518Z,3.90
2023-02-07T11:40:27.837Z,4.97
2023-02-07T11:43:03.629Z,4.20
2023-02-07T11:45:34.345Z,5.20
2023-02-07T11:48:02.928Z,4.25
2023-02-07T11:50:41.702Z,3.58
2023-02-07T11:53:24.506Z,3.95
2023-02-07T11:55:54.486Z,4.00
2023-02-07T11:58:39.743Z,4.23
2023-02-07T12:01:07.774Z,4.18
2023-02-07T12:03:52.701Z,3.28
2023-02-07T12:06:23.134Z,3.80
2023-02-07T12:08:50.194Z,3.63
2023-02-07T12:11:26.725Z,3.03
2023-02-07T12:14:03.648Z,3.35
2023-02-07T12:16:34.136Z,4.30
2023-02-07T12:19:27.446Z,5.07
2023-02-07T12:22:31.591Z,3.50
2023-02-07T12:25:22.300Z,3.17
2023-02-07T12:27:52.021Z,3.83
2023-02-07T12:30:33.377Z,5.03
2023-02-07T12:33:21.642Z,4.15
2023-02-07T12:36:11.229Z,3.90
2023-02-07T12:39:01.818Z,6.00
2023-02-07T12:41:35.473Z,5.35
2023-02-07T12:44:07.173Z,4.28
2023-02-07T12:46:49.249Z,6.00
2023-02-07T12:49:35.066Z,4.68
2023-02-07T12:52:27.893Z,4.37
2023-02-07T12:55:00.529Z,4.25
2023-02-07T12:57:48.404Z,4.97
2023-02-07T13:00:28.473Z,8.75
2023-02-07T13:03:29.081Z,6.40
2023-02-07T13:06:46.762Z,4.77
2023-02-07T13:09:22.105Z,5.10
2023-02-07T13:12:01.691Z,5.80
2023-02-07T13:15:17.897Z,5.20
2023-02-07T13:17:54.734Z,4.55
2023-02-07T13:20:38.201Z,4.87
2023-02-07T13:23:14.597Z,5.57
2023-02-07T13:25:43.219Z,6.38
2023-02-07T13:28:42.707Z,6.80
2023-02-07T13:31:13.811Z,5.78
2023-02-07T13:33:40.970Z,6.80
2023-02-07T13:36:17.604Z,5.97
2023-02-07T13:38:56.011Z,5.93
2023-02-07T13:41:39.560Z,5.47
2023-02-07T13:44:20.251Z,7.82
2023-02-07T13:46:56.501Z,6.40
2023-02-07T13:49:38.911Z,6.28
2023-02-07T13:52:14.958Z,7.55
2023-02-07T13:54:50.699Z,5.53
2023-02-07T13:57:55.996Z,4.80
2023-02-07T14:00:26.191Z,5.53
2023-02-07T14:02:56.586Z,6.50
2023-02-07T14:05:27.924Z,5.70
2023-02-07T14:08:01.696Z,4.97
2023-02-07T14:10:42.813Z,5.25
2023-02-07T14:13:20.513Z,6.80
2023-02-07T14:15:46.928Z,4.95
2023-02-07T14:18:38.611Z,8.18
2023-02-07T14:21:20.800Z,6.70
2023-02-07T14:24:32.313Z,5.45
2023-02-07T14:27:01.623Z,5.33
2023-02-07T14:29:30.751Z,6.10
2023-02-07T14:32:02.613Z,7.95
2023-02-07T14:34:31.724Z,5.25
2023-02-07T14:37:00.277Z,5.20
2023-02-07T14:39:33.436Z,6.17
2023-02-07T14:42:15.835Z,6.22
2023-02-07T14:44:45.214Z,3.90
2023-02-07T14:47:21.729Z,4.47
2023-02-07T14:49:51.420Z,5.00
2023-02-07T14:52:31.138Z,3.83
2023-02-07T14:55:02.076Z,6.38
2023-02-07T14:57:54.184Z,4.35
2023-02-07T15:00:47.190Z,4.32
2023-02-07T15:03:17.648Z,5.28
2023-02-07T15:06:04.428Z,4.80
2023-02-07T15:08:34.770Z,5.10
2023-02-07T15:11:04.649Z,4.05
2023-02-07T15:13:31.020Z,4.20
2023-02-07T15:16:04.017Z,4.32
2023-02-07T15:18:34.816Z,4.73
2023-02-07T15:21:01.769Z,3.97
2023-02-07T15:23:30.743Z,4.93
2023-02-07T15:26:01.654Z,4.15
2023-02-07T15:28:30.391Z,7.47
2023-02-07T15:31:02.855Z,9.20
2023-02-07T15:33:41.004Z,5.63
2023-02-07T15:36:31.419Z,5.30
2023-02-07T15:38:59.612Z,5.18
2023-02-07T15:41:27.386Z,4.55
2023-02-07T15:44:00.572Z,3.83
2023-02-07T15:46:42.612Z,4.07
2023-02-07T15:49:09.065Z,7.40
2023-02-07T15:51:41.195Z,3.70
2023-02-07T15:54:15.594Z,4.85
2023-02-07T15:56:45.686Z,5.23
2023-02-07T15:59:19.128Z,3.83
2023-02-07T16:01:55.463Z,4.40
2023-02-07T16:04:26.779Z,4.47
2023-02-07T16:07:12.233Z,5.80
2023-02-07T16:09:40.771Z,4.40
2023-02-07T16:12:22.919Z,4.72
2023-02-07T16:14:49.585Z,5.30
2023-02-07T16:17:24.241Z,5.68
2023-02-07T16:19:50.592Z,6.15
2023-02-07T16:22:21.345Z,7.83
2023-02-07T16:24:50.884Z,5.78
2023-02-07T16:27:20.535Z,6.50
2023-02-07T16:29:47.924Z,5.78
2023-02-07T16:32:14.716Z,6.22
2023-02-07T16:34:53.794Z,10.23
2023-02-07T16:37:24.098Z,6.78
2023-02-07T16:39:50.491Z,5.80
2023-02-07T16:42:19.502Z,6.03
2023-02-07T16:44:46.931Z,5.75
2023-02-07T16:47:13.733Z,7.83
2023-02-07T16:49:43.760Z,6.68
2023-02-07T16:52:10.321Z,9.05
2023-02-07T16:54:36.745Z,6.32
2023-02-07T16:57:04.053Z,8.43
2023-02-07T16:59:30.711Z,7.03
2023-02-07T17:01:57.214Z,8.20
2023-02-07T17:04:23.659Z,11.88
2023-02-07T17:06:50.375Z,10.95
2023-02-07T17:09:20.306Z,9.15
2023-02-07T17:11:47.045Z,11.60
2023-02-07T17:14:13.908Z,8.95
2023-02-07T17:16:40.979Z,9.07
2023-02-07T17:19:18.305Z,14.93
2023-02-07T17:21:46.379Z,8.02
2023-02-07T17:24:13.044Z,6.73
2023-02-07T17:26:43.708Z,7.18
2023-02-07T17:29:12.796Z,6.55
2023-02-07T17:31:39.657Z,10.50
2023-02-07T17:34:06.563Z,14.75
2023-02-07T17:36:34.314Z,7.87
2023-02-07T17:39:01.107Z,7.10
2023-02-07T17:41:27.465Z,7.07
2023-02-07T17:43:54.433Z,6.45
2023-02-07T17:46:24.240Z,10.63
2023-02-07T17:48:51.841Z,7.97
2023-02-07T17:51:20.829Z,9.73
2023-02-07T17:53:47.331Z,9.50
2023-02-07T17:56:30.913Z,8.10
2023-02-07T17:59:00.226Z,10.25
2023-02-07T18:01:26.655Z,17.03
2023-02-07T18:03:54.828Z,10.98
2023-02-07T18:06:26.970Z,9.13
2023-02-07T18:08:56.447Z,10.65
2023-02-07T18:11:23.949Z,11.57
2023-02-07T18:13:50.365Z,15.23
2023-02-07T18:16:22.807Z,12.18
2023-02-07T18:18:51.290Z,11.15
2023-02-07T18:21:18.037Z,12.48
2023-02-07T18:23:44.822Z,12.38
2023-02-07T18:26:14.877Z,12.83
2023-02-07T18:28:43.018Z,12.88
2023-02-07T18:31:11.954Z,16.20
2023-02-07T18:33:38.421Z,17.30
2023-02-07T18:36:05.386Z,16.58
2023-02-07T18:38:31.830Z,19.60
2023-02-07T18:40:58.168Z,19.63
2023-02-07T18:43:24.506Z,18.63
2023-02-07T18:45:50.896Z,17.17
2023-02-07T18:48:17.336Z,20.30
2023-02-07T18:50:44.581Z,15.90
2023-02-07T18:53:12.389Z,20.67
2023-02-07T18:55:38.929Z,18.17
2023-02-07T18:58:05.412Z,18.10
2023-02-07T19:00:31.855Z,19.52
2023-02-07T19:02:58.255Z,20.23
2023-02-07T19:05:24.598Z,17.92
2023-02-07T19:07:50.918Z,17.85
2023-02-07T19:10:17.401Z,18.17
2023-02-07T19:12:43.730Z,20.60
2023-02-07T19:15:10.287Z,25.13
2023-02-07T19:17:36.691Z,25.17
2023-02-07T19:20:03.168Z,27.80
2023-02-07T19:22:35.240Z,24.55
2023-02-07T19:25:02.723Z,25.02
2023-02-07T19:27:29.062Z,24.27
2023-02-07T19:29:55.386Z,22.13
2023-02-07T19:32:21.739Z,24.30
2023-02-07T19:34:49.159Z,18.83
2023-02-07T19:37:16.532Z,19.95
2023-02-07T19:39:44.768Z,20.03
2023-02-07T19:42:11.087Z,25.23
2023-02-07T19:44:37.472Z,22.00
2023-02-07T19:47:05.111Z,21.27
2023-02-07T19:49:31.627Z,21.58
2023-02-07T19:51:57.964Z,22.60
2023-02-07T19:54:24.300Z,23.77
2023-02-07T19:56:50.786Z,20.05
2023-02-07T19:59:18.607Z,19.05
2023-02-07T20:01:45.033Z,21.73
2023-02-07T20:04:11.434Z,20.97
2023-02-07T20:06:37.858Z,21.58
2023-02-07T20:09:05.760Z,20.85
2023-02-07T20:11:32.787Z,21.20
2023-02-07T20:14:02.963Z,22.80
2023-02-07T20:16:33.524Z,19.50
2023-02-07T20:19:00.693Z,19.17
2023-02-07T20:21:28.886Z,25.00
2023-02-07T20:23:56.996Z,20.20
2023-02-07T20:26:26.354Z,20.60
2023-02-07T20:28:53.572Z,22.80
2023-02-07T20:31:23.876Z,20.77
2023-02-07T20:33:50.589Z,18.20
2023-02-07T20:36:18.361Z,20.08
2023-02-07T20:38:46.353Z,18.80
2023-02-07T20:41:28.662Z,17.33
2023-02-07T20:44:05.252Z,14.35
2023-02-07T20:46:34.046Z,17.17
2023-02-07T20:49:03.637Z,18.35
2023-02-07T20:51:30.425Z,16.67
2023-02-07T20:53:59.572Z,19.17
2023-02-07T20:56:26.927Z,16.40
2023-02-07T20:58:54.395Z,15.30
2023-02-07T21:01:26.328Z,15.18
2023-02-07T21:03:55.049Z,20.30
2023-02-07T21:06:24.875Z,18.70
2023-02-07T21:08:55.213Z,26.58
2023-02-07T21:11:21.794Z,23.25
2023-02-07T21:13:53.854Z,19.85
2023-02-07T21:16:20.856Z,20.75
2023-02-07T21:18:48.043Z,26.83
2023-02-07T21:21:15.103Z,20.80
2023-02-07T21:23:41.730Z,24.58
2023-02-07T21:26:10.900Z,19.98
2023-02-07T21:28:37.429Z,23.20
2023-02-07T21:31:10.042Z,22.37
2023-02-07T21:33:36.515Z,19.17
2023-02-07T21:36:15.475Z,22.23
2023-02-07T21:38:45.893Z,18.58
2023-02-07T21:41:14.457Z,19.60
2023-02-07T21:43:42.005Z,21.90
2023-02-07T21:46:12.913Z,22.95
2023-02-07T21:48:41.713Z,20.33
2023-02-07T21:51:11.331Z,26.02
2023-02-07T21:53:38.374Z,21.90
2023-02-07T21:56:11.277Z,22.63
2023-02-07T21:58:37.676Z,26.25
2023-02-07T22:01:06.228Z,26.00
2023-02-07T22:03:32.653Z,20.83
2023-02-07T22:05:59.010Z,19.63
2023-02-07T22:08:25.378Z,17.97
2023-02-07T22:10:51.832Z,21.30
2023-02-07T22:13:18.267Z,25.10
2023-02-07T22:15:51.293Z,26.42
2023-02-07T22:18:17.685Z,21.88
2023-02-07T22:20:44.179Z,20.43
2023-02-07T22:23:10.518Z,17.38
2023-02-07T22:25:41.285Z,23.30
2023-02-07T22:28:08.385Z,20.50
2023-02-07T22:30:37.123Z,19.35
2023-02-07T22:33:05.593Z,16.77
2023-02-07T22:35:36.819Z,18.92
2023-02-07T22:38:04.158Z,17.73
2023-02-07T22:40:32.606Z,17.50
2023-02-07T22:42:59.129Z,22.30
2023-02-07T22:45:25.487Z,17.13
2023-02-07T22:47:51.873Z,16.25
2023-02-07T22:50:18.536Z,18.65
2023-02-07T22:52:45.568Z,15.25
2023-02-07T22:55:12.439Z,16.45
2023-02-07T22:57:38.813Z,19.53
2023-02-07T23:00:10.243Z,18.23
2023-02-07T23:02:36.729Z,20.15
2023-02-07T23:05:04.160Z,18.77
2023-02-07T23:07:30.592Z,17.73
2023-02-07T23:09:57.134Z,24.60
2023-02-07T23:12:23.524Z,18.67
2023-02-07T23:14:49.886Z,18.92
2023-02-07T23:17:16.232Z,17.27
2023-02-07T23:19:42.674Z,17.73
2023-02-07T23:22:09.052Z,19.20
2023-02-07T23:24:35.441Z,19.90
2023-02-07T23:27:01.828Z,18.25
2023-02-07T23:29:28.285Z,18.58
2023-02-07T23:31:55.059Z,16.08
2023-02-07T23:34:21.551Z,18.70
2023-02-07T23:36:48.989Z,17.55
2023-02-07T23:39:15.780Z,22.10
2023-02-07T23:41:42.248Z,22.20
2023-02-07T23:44:08.658Z,18.58
2023-02-07T23:46:35.487Z,19.80
2023-02-07T23:49:01.976Z,17.63
2023-02-07T23:51:28.553Z,14.70
2023-02-07T23:53:54.988Z,20.55
2023-02-07T23:56:23.589Z,21.13
2023-02-07T23:58:51.555Z,19.40
